sensor_id;sensor_type;location;lat;lon;timestamp;P1;durP1;ratioP1;P2;durP2;ratioP2
56481;SDS011;42384;45.186;19.958;2024-01-11T00:00:40;106.18;;;37.47;;
56481;SDS011;42384;45.186;19.958;2024-01-11T00:03:06;92.05;;;36.80;;
56481;SDS011;42384;45.186;19.958;2024-01-11T00:05:32;110.28;;;41.03;;
56481;SDS011;42384;45.186;19.958;2024-01-11T00:07:58;129.70;;;41.92;;
56481;SDS011;42384;45.186;19.958;2024-01-11T00:10:24;146.15;;;43.17;;
56481;SDS011;42384;45.186;19.958;2024-01-11T00:12:50;113.80;;;39.92;;
56481;SDS011;42384;45.186;19.958;2024-01-11T00:15:17;116.20;;;37.88;;
56481;SDS011;42384;45.186;19.958;2024-01-11T00:17:43;81.03;;;35.92;;
56481;SDS011;42384;45.186;19.958;2024-01-11T00:20:09;83.55;;;36.25;;
56481;SDS011;42384;45.186;19.958;2024-01-11T00:22:36;91.25;;;31.15;;
56481;SDS011;42384;45.186;19.958;2024-01-11T00:25:02;81.07;;;35.47;;
56481;SDS011;42384;45.186;19.958;2024-01-11T00:27:29;68.82;;;32.92;;
56481;SDS011;42384;45.186;19.958;2024-01-11T00:29:55;61.65;;;30.40;;
56481;SDS011;42384;45.186;19.958;2024-01-11T00:32:21;86.53;;;32.17;;
56481;SDS011;42384;45.186;19.958;2024-01-11T00:34:47;89.07;;;34.15;;
56481;SDS011;42384;45.186;19.958;2024-01-11T00:37:13;61.80;;;28.73;;
56481;SDS011;42384;45.186;19.958;2024-01-11T00:39:39;59.10;;;26.73;;
56481;SDS011;42384;45.186;19.958;2024-01-11T00:42:06;61.15;;;28.50;;
56481;SDS011;42384;45.186;19.958;2024-01-11T00:44:32;67.35;;;30.13;;
56481;SDS011;42384;45.186;19.958;2024-01-11T00:46:58;87.50;;;34.88;;
56481;SDS011;42384;45.186;19.958;2024-01-11T00:49:24;93.15;;;33.38;;
56481;SDS011;42384;45.186;19.958;2024-01-11T00:51:50;101.78;;;32.92;;
56481;SDS011;42384;45.186;19.958;2024-01-11T00:54:16;63.40;;;29.10;;
56481;SDS011;42384;45.186;19.958;2024-01-11T00:56:45;52.33;;;25.02;;
56481;SDS011;42384;45.186;19.958;2024-01-11T00:59:11;48.25;;;23.20;;
56481;SDS011;42384;45.186;19.958;2024-01-11T01:01:37;52.88;;;23.73;;
56481;SDS011;42384;45.186;19.958;2024-01-11T01:04:03;47.42;;;22.52;;
56481;SDS011;42384;45.186;19.958;2024-01-11T01:06:30;44.53;;;22.35;;
56481;SDS011;42384;45.186;19.958;2024-01-11T01:08:56;49.90;;;23.23;;
56481;SDS011;42384;45.186;19.958;2024-01-11T01:11:22;47.83;;;23.40;;
56481;SDS011;42384;45.186;19.958;2024-01-11T01:13:48;45.92;;;22.52;;
56481;SDS011;42384;45.186;19.958;2024-01-11T01:16:14;45.85;;;21.75;;
56481;SDS011;42384;45.186;19.958;2024-01-11T01:18:42;51.88;;;23.50;;
56481;SDS011;42384;45.186;19.958;2024-01-11T01:21:09;48.97;;;23.20;;
56481;SDS011;42384;45.186;19.958;2024-01-11T01:23:35;49.70;;;25.23;;
56481;SDS011;42384;45.186;19.958;2024-01-11T01:26:01;49.63;;;23.95;;
56481;SDS011;42384;45.186;19.958;2024-01-11T01:28:27;55.20;;;23.83;;
56481;SDS011;42384;45.186;19.958;2024-01-11T01:30:53;49.35;;;25.05;;
56481;SDS011;42384;45.186;19.958;2024-01-11T01:33:20;60.97;;;25.98;;
56481;SDS011;42384;45.186;19.958;2024-01-11T01:35:46;57.78;;;26.63;;
56481;SDS011;42384;45.186;19.958;2024-01-11T01:38:12;54.97;;;26.70;;
56481;SDS011;42384;45.186;19.958;2024-01-11T01:40:38;58.70;;;26.95;;
56481;SDS011;42384;45.186;19.958;2024-01-11T01:43:07;55.85;;;27.20;;
56481;SDS011;42384;45.186;19.958;2024-01-11T01:45:34;55.60;;;26.25;;
56481;SDS011;42384;45.186;19.958;2024-01-11T01:48:01;59.60;;;26.85;;
56481;SDS011;42384;45.186;19.958;2024-01-11T01:50:27;40.73;;;19.40;;
56481;SDS011;42384;45.186;19.958;2024-01-11T01:52:54;58.85;;;26.95;;
56481;SDS011;42384;45.186;19.958;2024-01-11T01:55:21;58.03;;;25.75;;
56481;SDS011;42384;45.186;19.958;2024-01-11T01:57:48;57.67;;;25.63;;
56481;SDS011;42384;45.186;19.958;2024-01-11T02:00:16;54.35;;;24.83;;
56481;SDS011;42384;45.186;19.958;2024-01-11T02:02:43;51.37;;;23.87;;
56481;SDS011;42384;45.186;19.958;2024-01-11T02:05:10;52.65;;;27.27;;
56481;SDS011;42384;45.186;19.958;2024-01-11T02:07:37;53.55;;;25.75;;
56481;SDS011;42384;45.186;19.958;2024-01-11T02:10:03;56.72;;;27.80;;
56481;SDS011;42384;45.186;19.958;2024-01-11T02:12:30;63.80;;;28.70;;
56481;SDS011;42384;45.186;19.958;2024-01-11T02:14:56;67.97;;;27.58;;
56481;SDS011;42384;45.186;19.958;2024-01-11T02:17:23;73.85;;;34.13;;
56481;SDS011;42384;45.186;19.958;2024-01-11T02:19:49;71.43;;;31.77;;
56481;SDS011;42384;45.186;19.958;2024-01-11T02:22:19;83.17;;;35.57;;
56481;SDS011;42384;45.186;19.958;2024-01-11T02:24:46;84.07;;;35.13;;
56481;SDS011;42384;45.186;19.958;2024-01-11T02:27:13;109.93;;;38.58;;
56481;SDS011;42384;45.186;19.958;2024-01-11T02:29:39;95.38;;;39.70;;
56481;SDS011;42384;45.186;19.958;2024-01-11T02:32:06;84.82;;;37.63;;
56481;SDS011;42384;45.186;19.958;2024-01-11T02:36:59;83.32;;;35.55;;
56481;SDS011;42384;45.186;19.958;2024-01-11T02:39:25;166.47;;;39.10;;
56481;SDS011;42384;45.186;19.958;2024-01-11T02:41:52;88.40;;;34.85;;
56481;SDS011;42384;45.186;19.958;2024-01-11T02:44:19;132.73;;;39.38;;
56481;SDS011;42384;45.186;19.958;2024-01-11T02:46:45;82.03;;;34.75;;
56481;SDS011;42384;45.186;19.958;2024-01-11T02:49:11;93.15;;;36.25;;
56481;SDS011;42384;45.186;19.958;2024-01-11T02:51:38;240.95;;;40.35;;
56481;SDS011;42384;45.186;19.958;2024-01-11T02:54:04;191.55;;;37.65;;
56481;SDS011;42384;45.186;19.958;2024-01-11T02:56:30;84.35;;;34.55;;
56481;SDS011;42384;45.186;19.958;2024-01-11T02:58:57;81.13;;;34.57;;
56481;SDS011;42384;45.186;19.958;2024-01-11T03:01:23;75.10;;;30.85;;
56481;SDS011;42384;45.186;19.958;2024-01-11T03:03:49;63.88;;;30.77;;
56481;SDS011;42384;45.186;19.958;2024-01-11T03:06:16;60.33;;;28.33;;
56481;SDS011;42384;45.186;19.958;2024-01-11T03:08:49;64.13;;;29.35;;
56481;SDS011;42384;45.186;19.958;2024-01-11T03:11:15;61.55;;;27.00;;
56481;SDS011;42384;45.186;19.958;2024-01-11T03:13:42;62.67;;;29.10;;
56481;SDS011;42384;45.186;19.958;2024-01-11T03:16:08;58.08;;;27.42;;
56481;SDS011;42384;45.186;19.958;2024-01-11T03:18:35;56.17;;;25.85;;
56481;SDS011;42384;45.186;19.958;2024-01-11T03:21:01;55.28;;;26.27;;
56481;SDS011;42384;45.186;19.958;2024-01-11T03:23:27;57.28;;;26.65;;
56481;SDS011;42384;45.186;19.958;2024-01-11T03:25:53;50.55;;;25.92;;
56481;SDS011;42384;45.186;19.958;2024-01-11T03:28:20;57.63;;;26.75;;
56481;SDS011;42384;45.186;19.958;2024-01-11T03:30:46;111.03;;;32.33;;
56481;SDS011;42384;45.186;19.958;2024-01-11T03:33:12;70.38;;;30.98;;
56481;SDS011;42384;45.186;19.958;2024-01-11T03:35:39;225.97;;;40.17;;
56481;SDS011;42384;45.186;19.958;2024-01-11T03:38:05;96.07;;;27.73;;
56481;SDS011;42384;45.186;19.958;2024-01-11T03:40:32;81.63;;;33.63;;
56481;SDS011;42384;45.186;19.958;2024-01-11T03:42:58;66.55;;;31.17;;
56481;SDS011;42384;45.186;19.958;2024-01-11T03:45:25;70.68;;;33.00;;
56481;SDS011;42384;45.186;19.958;2024-01-11T03:47:51;63.13;;;27.90;;
56481;SDS011;42384;45.186;19.958;2024-01-11T03:50:17;53.55;;;27.50;;
56481;SDS011;42384;45.186;19.958;2024-01-11T03:52:44;54.63;;;25.73;;
56481;SDS011;42384;45.186;19.958;2024-01-11T03:55:11;118.47;;;28.77;;
56481;SDS011;42384;45.186;19.958;2024-01-11T03:57:37;161.88;;;31.25;;
56481;SDS011;42384;45.186;19.958;2024-01-11T04:00:04;140.13;;;22.20;;
56481;SDS011;42384;45.186;19.958;2024-01-11T04:02:31;91.70;;;27.85;;
56481;SDS011;42384;45.186;19.958;2024-01-11T04:04:57;64.75;;;27.52;;
56481;SDS011;42384;45.186;19.958;2024-01-11T04:07:24;73.38;;;27.92;;
56481;SDS011;42384;45.186;19.958;2024-01-11T04:09:50;103.43;;;31.02;;
56481;SDS011;42384;45.186;19.958;2024-01-11T04:12:16;69.03;;;29.02;;
56481;SDS011;42384;45.186;19.958;2024-01-11T04:14:43;54.50;;;25.83;;
56481;SDS011;42384;45.186;19.958;2024-01-11T04:17:09;51.58;;;25.48;;
56481;SDS011;42384;45.186;19.958;2024-01-11T04:19:35;56.13;;;26.73;;
56481;SDS011;42384;45.186;19.958;2024-01-11T04:22:02;69.50;;;30.10;;
56481;SDS011;42384;45.186;19.958;2024-01-11T04:24:28;64.68;;;29.02;;
56481;SDS011;42384;45.186;19.958;2024-01-11T04:26:55;79.43;;;30.77;;
56481;SDS011;42384;45.186;19.958;2024-01-11T04:29:21;93.30;;;32.92;;
56481;SDS011;42384;45.186;19.958;2024-01-11T04:31:47;115.28;;;34.03;;
56481;SDS011;42384;45.186;19.958;2024-01-11T04:34:14;69.30;;;30.37;;
56481;SDS011;42384;45.186;19.958;2024-01-11T04:36:40;76.20;;;29.35;;
56481;SDS011;42384;45.186;19.958;2024-01-11T04:39:06;55.97;;;25.77;;
56481;SDS011;42384;45.186;19.958;2024-01-11T04:41:34;43.60;;;22.57;;
56481;SDS011;42384;45.186;19.958;2024-01-11T04:44:04;49.40;;;22.85;;
56481;SDS011;42384;45.186;19.958;2024-01-11T04:46:30;54.50;;;24.73;;
56481;SDS011;42384;45.186;19.958;2024-01-11T04:48:57;52.40;;;23.33;;
56481;SDS011;42384;45.186;19.958;2024-01-11T04:51:23;45.67;;;21.50;;
56481;SDS011;42384;45.186;19.958;2024-01-11T04:53:49;45.83;;;22.45;;
56481;SDS011;42384;45.186;19.958;2024-01-11T04:56:16;52.80;;;24.73;;
56481;SDS011;42384;45.186;19.958;2024-01-11T04:58:43;45.40;;;21.30;;
56481;SDS011;42384;45.186;19.958;2024-01-11T05:01:16;51.78;;;25.05;;
56481;SDS011;42384;45.186;19.958;2024-01-11T05:03:43;49.88;;;23.75;;
56481;SDS011;42384;45.186;19.958;2024-01-11T05:06:14;49.83;;;23.63;;
56481;SDS011;42384;45.186;19.958;2024-01-11T05:08:41;46.60;;;22.90;;
56481;SDS011;42384;45.186;19.958;2024-01-11T05:11:07;52.10;;;25.40;;
56481;SDS011;42384;45.186;19.958;2024-01-11T05:13:33;48.53;;;23.35;;
56481;SDS011;42384;45.186;19.958;2024-01-11T05:16:00;45.70;;;22.45;;
56481;SDS011;42384;45.186;19.958;2024-01-11T05:18:26;45.42;;;21.70;;
56481;SDS011;42384;45.186;19.958;2024-01-11T05:20:52;46.35;;;23.20;;
56481;SDS011;42384;45.186;19.958;2024-01-11T05:23:19;51.83;;;23.50;;
56481;SDS011;42384;45.186;19.958;2024-01-11T05:25:45;49.60;;;24.67;;
56481;SDS011;42384;45.186;19.958;2024-01-11T05:28:11;51.47;;;25.38;;
56481;SDS011;42384;45.186;19.958;2024-01-11T05:30:38;37.45;;;20.13;;
56481;SDS011;42384;45.186;19.958;2024-01-11T05:33:04;53.17;;;25.17;;
56481;SDS011;42384;45.186;19.958;2024-01-11T05:35:31;52.67;;;24.90;;
56481;SDS011;42384;45.186;19.958;2024-01-11T05:37:58;51.50;;;23.02;;
56481;SDS011;42384;45.186;19.958;2024-01-11T05:40:24;57.72;;;26.52;;
56481;SDS011;42384;45.186;19.958;2024-01-11T05:42:51;57.13;;;26.27;;
56481;SDS011;42384;45.186;19.958;2024-01-11T05:45:17;63.30;;;28.47;;
56481;SDS011;42384;45.186;19.958;2024-01-11T05:47:43;90.23;;;29.97;;
56481;SDS011;42384;45.186;19.958;2024-01-11T05:50:10;60.20;;;26.43;;
56481;SDS011;42384;45.186;19.958;2024-01-11T05:55:04;72.38;;;27.40;;
56481;SDS011;42384;45.186;19.958;2024-01-11T05:57:30;58.53;;;27.25;;
56481;SDS011;42384;45.186;19.958;2024-01-11T05:59:56;67.70;;;27.33;;
56481;SDS011;42384;45.186;19.958;2024-01-11T06:02:23;58.38;;;27.00;;
56481;SDS011;42384;45.186;19.958;2024-01-11T06:04:49;54.60;;;25.07;;
56481;SDS011;42384;45.186;19.958;2024-01-11T06:07:16;44.30;;;20.40;;
56481;SDS011;42384;45.186;19.958;2024-01-11T06:09:42;61.67;;;27.37;;
56481;SDS011;42384;45.186;19.958;2024-01-11T06:12:08;62.75;;;27.63;;
56481;SDS011;42384;45.186;19.958;2024-01-11T06:14:35;56.55;;;26.63;;
56481;SDS011;42384;45.186;19.958;2024-01-11T06:17:01;57.38;;;27.15;;
56481;SDS011;42384;45.186;19.958;2024-01-11T06:19:28;59.75;;;27.35;;
56481;SDS011;42384;45.186;19.958;2024-01-11T06:21:54;64.07;;;28.30;;
56481;SDS011;42384;45.186;19.958;2024-01-11T06:24:20;65.07;;;30.35;;
56481;SDS011;42384;45.186;19.958;2024-01-11T06:26:47;71.27;;;32.20;;
56481;SDS011;42384;45.186;19.958;2024-01-11T06:29:13;86.97;;;38.03;;
56481;SDS011;42384;45.186;19.958;2024-01-11T06:31:39;91.50;;;39.00;;
56481;SDS011;42384;45.186;19.958;2024-01-11T06:34:06;80.00;;;36.40;;
56481;SDS011;42384;45.186;19.958;2024-01-11T06:36:32;75.00;;;31.27;;
56481;SDS011;42384;45.186;19.958;2024-01-11T06:38:59;81.90;;;36.97;;
56481;SDS011;42384;45.186;19.958;2024-01-11T06:41:26;80.70;;;37.10;;
56481;SDS011;42384;45.186;19.958;2024-01-11T06:43:52;90.50;;;38.50;;
56481;SDS011;42384;45.186;19.958;2024-01-11T06:46:19;84.40;;;40.13;;
56481;SDS011;42384;45.186;19.958;2024-01-11T06:51:15;92.57;;;39.35;;
56481;SDS011;42384;45.186;19.958;2024-01-11T06:53:42;87.38;;;40.13;;
56481;SDS011;42384;45.186;19.958;2024-01-11T06:56:14;86.57;;;40.80;;
56481;SDS011;42384;45.186;19.958;2024-01-11T06:58:41;85.47;;;38.85;;
56481;SDS011;42384;45.186;19.958;2024-01-11T07:01:07;78.78;;;37.75;;
56481;SDS011;42384;45.186;19.958;2024-01-11T07:03:34;85.88;;;37.28;;
56481;SDS011;42384;45.186;19.958;2024-01-11T07:06:01;64.15;;;31.02;;
56481;SDS011;42384;45.186;19.958;2024-01-11T07:08:28;113.70;;;45.53;;
56481;SDS011;42384;45.186;19.958;2024-01-11T07:10:54;95.50;;;44.40;;
56481;SDS011;42384;45.186;19.958;2024-01-11T07:13:21;110.70;;;46.67;;
56481;SDS011;42384;45.186;19.958;2024-01-11T07:15:47;104.35;;;46.72;;
56481;SDS011;42384;45.186;19.958;2024-01-11T07:18:13;104.78;;;45.28;;
56481;SDS011;42384;45.186;19.958;2024-01-11T07:20:40;96.97;;;44.17;;
56481;SDS011;42384;45.186;19.958;2024-01-11T07:23:06;93.83;;;43.13;;
56481;SDS011;42384;45.186;19.958;2024-01-11T07:25:33;91.78;;;41.88;;
56481;SDS011;42384;45.186;19.958;2024-01-11T07:28:00;87.60;;;42.15;;
56481;SDS011;42384;45.186;19.958;2024-01-11T07:30:26;86.72;;;42.25;;
56481;SDS011;42384;45.186;19.958;2024-01-11T07:32:53;94.05;;;41.55;;
56481;SDS011;42384;45.186;19.958;2024-01-11T07:35:19;85.28;;;40.97;;
56481;SDS011;42384;45.186;19.958;2024-01-11T07:37:45;87.25;;;41.10;;
56481;SDS011;42384;45.186;19.958;2024-01-11T07:40:11;94.88;;;44.10;;
56481;SDS011;42384;45.186;19.958;2024-01-11T07:42:38;68.50;;;33.78;;
56481;SDS011;42384;45.186;19.958;2024-01-11T07:45:06;81.25;;;41.20;;
56481;SDS011;42384;45.186;19.958;2024-01-11T07:49:58;82.68;;;40.70;;
56481;SDS011;42384;45.186;19.958;2024-01-11T07:52:25;73.47;;;36.27;;
56481;SDS011;42384;45.186;19.958;2024-01-11T07:54:51;87.03;;;43.50;;
56481;SDS011;42384;45.186;19.958;2024-01-11T07:57:19;87.97;;;46.38;;
56481;SDS011;42384;45.186;19.958;2024-01-11T07:59:45;96.95;;;46.45;;
56481;SDS011;42384;45.186;19.958;2024-01-11T08:02:11;95.28;;;46.45;;
56481;SDS011;42384;45.186;19.958;2024-01-11T08:04:38;91.70;;;44.78;;
56481;SDS011;42384;45.186;19.958;2024-01-11T08:07:04;93.63;;;42.97;;
56481;SDS011;42384;45.186;19.958;2024-01-11T08:09:30;95.80;;;46.50;;
56481;SDS011;42384;45.186;19.958;2024-01-11T08:11:57;84.78;;;43.28;;
56481;SDS011;42384;45.186;19.958;2024-01-11T08:14:23;85.60;;;42.63;;
56481;SDS011;42384;45.186;19.958;2024-01-11T08:16:50;82.70;;;41.05;;
56481;SDS011;42384;45.186;19.958;2024-01-11T08:19:16;72.85;;;38.63;;
56481;SDS011;42384;45.186;19.958;2024-01-11T08:21:42;74.43;;;37.90;;
56481;SDS011;42384;45.186;19.958;2024-01-11T08:24:09;70.88;;;37.25;;
56481;SDS011;42384;45.186;19.958;2024-01-11T08:26:35;73.43;;;38.00;;
56481;SDS011;42384;45.186;19.958;2024-01-11T08:29:02;77.45;;;39.13;;
56481;SDS011;42384;45.186;19.958;2024-01-11T08:31:30;77.50;;;39.38;;
56481;SDS011;42384;45.186;19.958;2024-01-11T08:33:56;82.70;;;42.88;;
56481;SDS011;42384;45.186;19.958;2024-01-11T08:36:22;87.07;;;46.67;;
56481;SDS011;42384;45.186;19.958;2024-01-11T08:38:49;100.57;;;49.83;;
56481;SDS011;42384;45.186;19.958;2024-01-11T08:41:15;86.65;;;46.85;;
56481;SDS011;42384;45.186;19.958;2024-01-11T08:43:42;101.70;;;52.77;;
56481;SDS011;42384;45.186;19.958;2024-01-11T08:46:08;94.05;;;48.95;;
56481;SDS011;42384;45.186;19.958;2024-01-11T08:48:35;93.63;;;49.10;;
56481;SDS011;42384;45.186;19.958;2024-01-11T08:51:01;90.20;;;46.92;;
56481;SDS011;42384;45.186;19.958;2024-01-11T08:53:27;94.53;;;48.73;;
56481;SDS011;42384;45.186;19.958;2024-01-11T08:55:54;95.93;;;49.08;;
56481;SDS011;42384;45.186;19.958;2024-01-11T08:58:20;90.70;;;47.78;;
56481;SDS011;42384;45.186;19.958;2024-01-11T09:00:46;94.00;;;47.83;;
56481;SDS011;42384;45.186;19.958;2024-01-11T09:03:13;93.00;;;47.28;;
56481;SDS011;42384;45.186;19.958;2024-01-11T09:05:40;90.07;;;43.70;;
56481;SDS011;42384;45.186;19.958;2024-01-11T09:08:07;80.38;;;44.17;;
56481;SDS011;42384;45.186;19.958;2024-01-11T09:10:33;82.47;;;41.70;;
56481;SDS011;42384;45.186;19.958;2024-01-11T09:12:59;95.60;;;45.15;;
56481;SDS011;42384;45.186;19.958;2024-01-11T09:15:26;86.00;;;45.20;;
56481;SDS011;42384;45.186;19.958;2024-01-11T09:17:52;87.07;;;43.67;;
56481;SDS011;42384;45.186;19.958;2024-01-11T09:20:18;101.67;;;49.07;;
56481;SDS011;42384;45.186;19.958;2024-01-11T09:22:45;88.72;;;44.42;;
56481;SDS011;42384;45.186;19.958;2024-01-11T09:25:11;88.82;;;45.25;;
56481;SDS011;42384;45.186;19.958;2024-01-11T09:27:38;78.55;;;40.90;;
56481;SDS011;42384;45.186;19.958;2024-01-11T09:30:05;88.75;;;46.50;;
56481;SDS011;42384;45.186;19.958;2024-01-11T09:32:31;85.65;;;43.92;;
56481;SDS011;42384;45.186;19.958;2024-01-11T09:34:57;85.07;;;46.60;;
56481;SDS011;42384;45.186;19.958;2024-01-11T09:37:24;91.63;;;45.72;;
56481;SDS011;42384;45.186;19.958;2024-01-11T09:39:50;85.85;;;43.90;;
56481;SDS011;42384;45.186;19.958;2024-01-11T09:42:16;87.80;;;44.53;;
56481;SDS011;42384;45.186;19.958;2024-01-11T09:44:44;88.45;;;45.65;;
56481;SDS011;42384;45.186;19.958;2024-01-11T09:47:10;87.30;;;46.55;;
56481;SDS011;42384;45.186;19.958;2024-01-11T09:49:38;87.13;;;45.80;;
56481;SDS011;42384;45.186;19.958;2024-01-11T09:52:06;99.97;;;50.30;;
56481;SDS011;42384;45.186;19.958;2024-01-11T09:54:35;93.00;;;47.90;;
56481;SDS011;42384;45.186;19.958;2024-01-11T09:57:01;91.72;;;49.10;;
56481;SDS011;42384;45.186;19.958;2024-01-11T09:59:28;83.72;;;46.67;;
56481;SDS011;42384;45.186;19.958;2024-01-11T10:01:54;86.30;;;47.50;;
56481;SDS011;42384;45.186;19.958;2024-01-11T10:04:21;86.70;;;46.53;;
56481;SDS011;42384;45.186;19.958;2024-01-11T10:06:47;96.18;;;48.15;;
56481;SDS011;42384;45.186;19.958;2024-01-11T10:09:16;85.68;;;46.72;;
56481;SDS011;42384;45.186;19.958;2024-01-11T10:11:42;83.33;;;44.23;;
56481;SDS011;42384;45.186;19.958;2024-01-11T10:14:10;89.72;;;47.97;;
56481;SDS011;42384;45.186;19.958;2024-01-11T10:16:38;81.82;;;45.38;;
56481;SDS011;42384;45.186;19.958;2024-01-11T10:19:04;86.87;;;46.93;;
56481;SDS011;42384;45.186;19.958;2024-01-11T10:21:30;82.82;;;44.00;;
56481;SDS011;42384;45.186;19.958;2024-01-11T10:23:57;81.80;;;44.60;;
56481;SDS011;42384;45.186;19.958;2024-01-11T10:26:24;87.22;;;45.95;;
56481;SDS011;42384;45.186;19.958;2024-01-11T10:28:51;83.18;;;44.13;;
56481;SDS011;42384;45.186;19.958;2024-01-11T10:31:17;85.30;;;44.38;;
56481;SDS011;42384;45.186;19.958;2024-01-11T10:33:44;85.05;;;45.03;;
56481;SDS011;42384;45.186;19.958;2024-01-11T10:36:11;85.85;;;46.80;;
56481;SDS011;42384;45.186;19.958;2024-01-11T10:38:38;91.77;;;46.17;;
56481;SDS011;42384;45.186;19.958;2024-01-11T10:41:05;92.32;;;49.38;;
56481;SDS011;42384;45.186;19.958;2024-01-11T10:43:32;91.97;;;47.33;;
56481;SDS011;42384;45.186;19.958;2024-01-11T10:46:00;99.25;;;51.05;;
56481;SDS011;42384;45.186;19.958;2024-01-11T10:48:32;94.88;;;50.90;;
56481;SDS011;42384;45.186;19.958;2024-01-11T10:51:02;93.50;;;51.55;;
56481;SDS011;42384;45.186;19.958;2024-01-11T10:53:31;89.82;;;50.05;;
56481;SDS011;42384;45.186;19.958;2024-01-11T10:55:59;96.57;;;50.30;;
56481;SDS011;42384;45.186;19.958;2024-01-11T10:58:27;89.53;;;47.85;;
56481;SDS011;42384;45.186;19.958;2024-01-11T11:00:54;95.07;;;49.72;;
56481;SDS011;42384;45.186;19.958;2024-01-11T11:03:21;95.10;;;51.15;;
56481;SDS011;42384;45.186;19.958;2024-01-11T11:05:50;94.95;;;51.97;;
56481;SDS011;42384;45.186;19.958;2024-01-11T11:08:19;93.50;;;49.95;;
56481;SDS011;42384;45.186;19.958;2024-01-11T11:10:46;87.20;;;48.80;;
56481;SDS011;42384;45.186;19.958;2024-01-11T11:13:14;88.78;;;50.80;;
56481;SDS011;42384;45.186;19.958;2024-01-11T11:15:42;84.35;;;47.88;;
56481;SDS011;42384;45.186;19.958;2024-01-11T11:18:12;91.05;;;48.28;;
56481;SDS011;42384;45.186;19.958;2024-01-11T11:20:42;81.78;;;46.95;;
56481;SDS011;42384;45.186;19.958;2024-01-11T11:23:09;83.38;;;47.45;;
56481;SDS011;42384;45.186;19.958;2024-01-11T11:25:36;83.57;;;46.47;;
56481;SDS011;42384;45.186;19.958;2024-01-11T11:28:04;86.60;;;48.42;;
56481;SDS011;42384;45.186;19.958;2024-01-11T11:30:30;86.85;;;49.13;;
56481;SDS011;42384;45.186;19.958;2024-01-11T11:32:57;88.45;;;48.80;;
56481;SDS011;42384;45.186;19.958;2024-01-11T11:35:23;90.38;;;48.25;;
56481;SDS011;42384;45.186;19.958;2024-01-11T11:37:53;87.97;;;46.80;;
56481;SDS011;42384;45.186;19.958;2024-01-11T11:40:22;84.43;;;46.67;;
56481;SDS011;42384;45.186;19.958;2024-01-11T11:42:58;90.97;;;47.78;;
56481;SDS011;42384;45.186;19.958;2024-01-11T11:45:24;91.20;;;48.58;;
56481;SDS011;42384;45.186;19.958;2024-01-11T11:47:51;87.88;;;48.05;;
56481;SDS011;42384;45.186;19.958;2024-01-11T11:50:21;86.90;;;48.55;;
56481;SDS011;42384;45.186;19.958;2024-01-11T11:52:53;90.88;;;49.63;;
56481;SDS011;42384;45.186;19.958;2024-01-11T11:55:20;78.53;;;42.08;;
56481;SDS011;42384;45.186;19.958;2024-01-11T11:57:49;60.22;;;30.98;;
56481;SDS011;42384;45.186;19.958;2024-01-11T12:00:15;46.13;;;25.65;;
56481;SDS011;42384;45.186;19.958;2024-01-11T12:02:42;49.15;;;26.48;;
56481;SDS011;42384;45.186;19.958;2024-01-11T12:05:08;49.63;;;27.17;;
56481;SDS011;42384;45.186;19.958;2024-01-11T12:07:34;54.33;;;29.95;;
56481;SDS011;42384;45.186;19.958;2024-01-11T12:10:01;55.23;;;28.10;;
56481;SDS011;42384;45.186;19.958;2024-01-11T12:12:27;47.70;;;26.77;;
56481;SDS011;42384;45.186;19.958;2024-01-11T12:14:54;51.08;;;27.55;;
56481;SDS011;42384;45.186;19.958;2024-01-11T12:17:20;50.05;;;26.83;;
56481;SDS011;42384;45.186;19.958;2024-01-11T12:19:46;54.03;;;29.90;;
56481;SDS011;42384;45.186;19.958;2024-01-11T12:22:13;50.22;;;27.30;;
56481;SDS011;42384;45.186;19.958;2024-01-11T12:24:39;54.08;;;28.92;;
56481;SDS011;42384;45.186;19.958;2024-01-11T12:27:06;50.83;;;26.17;;
56481;SDS011;42384;45.186;19.958;2024-01-11T12:29:32;47.83;;;25.75;;
56481;SDS011;42384;45.186;19.958;2024-01-11T12:32:02;43.65;;;25.17;;
56481;SDS011;42384;45.186;19.958;2024-01-11T12:34:29;45.25;;;24.85;;
56481;SDS011;42384;45.186;19.958;2024-01-11T12:39:25;44.97;;;24.08;;
56481;SDS011;42384;45.186;19.958;2024-01-11T12:41:53;49.10;;;25.88;;
56481;SDS011;42384;45.186;19.958;2024-01-11T12:44:22;43.88;;;23.85;;
56481;SDS011;42384;45.186;19.958;2024-01-11T12:46:49;52.10;;;27.38;;
56481;SDS011;42384;45.186;19.958;2024-01-11T12:49:15;50.37;;;24.83;;
56481;SDS011;42384;45.186;19.958;2024-01-11T12:51:42;47.35;;;25.67;;
56481;SDS011;42384;45.186;19.958;2024-01-11T12:54:11;59.63;;;27.63;;
56481;SDS011;42384;45.186;19.958;2024-01-11T12:56:44;49.05;;;26.55;;
56481;SDS011;42384;45.186;19.958;2024-01-11T12:59:10;48.67;;;26.15;;
56481;SDS011;42384;45.186;19.958;2024-01-11T13:01:39;46.90;;;24.83;;
56481;SDS011;42384;45.186;19.958;2024-01-11T13:04:08;41.13;;;22.65;;
56481;SDS011;42384;45.186;19.958;2024-01-11T13:06:34;36.75;;;21.70;;
56481;SDS011;42384;45.186;19.958;2024-01-11T13:09:01;40.00;;;21.75;;
56481;SDS011;42384;45.186;19.958;2024-01-11T13:11:27;37.33;;;20.30;;
56481;SDS011;42384;45.186;19.958;2024-01-11T13:13:53;39.50;;;22.53;;
56481;SDS011;42384;45.186;19.958;2024-01-11T13:16:19;41.40;;;21.77;;
56481;SDS011;42384;45.186;19.958;2024-01-11T13:18:47;44.53;;;23.27;;
56481;SDS011;42384;45.186;19.958;2024-01-11T13:21:13;43.50;;;22.87;;
56481;SDS011;42384;45.186;19.958;2024-01-11T13:23:39;39.60;;;22.45;;
56481;SDS011;42384;45.186;19.958;2024-01-11T13:26:06;40.00;;;21.83;;
56481;SDS011;42384;45.186;19.958;2024-01-11T13:28:35;40.72;;;21.67;;
56481;SDS011;42384;45.186;19.958;2024-01-11T13:31:02;45.65;;;23.23;;
56481;SDS011;42384;45.186;19.958;2024-01-11T13:33:28;41.63;;;22.05;;
56481;SDS011;42384;45.186;19.958;2024-01-11T13:35:54;44.70;;;24.35;;
56481;SDS011;42384;45.186;19.958;2024-01-11T13:38:20;43.17;;;23.20;;
56481;SDS011;42384;45.186;19.958;2024-01-11T13:40:46;42.67;;;22.63;;
56481;SDS011;42384;45.186;19.958;2024-01-11T13:43:12;43.97;;;22.48;;
56481;SDS011;42384;45.186;19.958;2024-01-11T13:45:39;44.05;;;23.20;;
56481;SDS011;42384;45.186;19.958;2024-01-11T13:48:05;45.13;;;23.13;;
56481;SDS011;42384;45.186;19.958;2024-01-11T13:50:31;42.15;;;22.27;;
56481;SDS011;42384;45.186;19.958;2024-01-11T13:52:58;43.20;;;24.00;;
56481;SDS011;42384;45.186;19.958;2024-01-11T13:55:24;42.92;;;23.23;;
56481;SDS011;42384;45.186;19.958;2024-01-11T13:57:51;57.17;;;27.45;;
56481;SDS011;42384;45.186;19.958;2024-01-11T14:00:18;54.65;;;28.17;;
56481;SDS011;42384;45.186;19.958;2024-01-11T14:02:45;48.90;;;27.63;;
56481;SDS011;42384;45.186;19.958;2024-01-11T14:05:11;52.97;;;26.67;;
56481;SDS011;42384;45.186;19.958;2024-01-11T14:07:40;58.33;;;30.88;;
56481;SDS011;42384;45.186;19.958;2024-01-11T14:10:06;55.15;;;29.13;;
56481;SDS011;42384;45.186;19.958;2024-01-11T14:12:35;56.97;;;29.92;;
56481;SDS011;42384;45.186;19.958;2024-01-11T14:15:05;54.15;;;30.13;;
56481;SDS011;42384;45.186;19.958;2024-01-11T14:17:32;56.22;;;29.52;;